Gaellnoe — D5AI5 — position and weather

sailwx.info

Track history (hours):
 
Tides and Currents Weather Stations Pressure Air Temp Water Temp Dewpoint Dewpoint Depression Visibility Wind Speed Wind Dir Waves Ship Positions

Gaellnoe

Last reported at 2017-Nov-24 12:41 UTC. Time now 2017-Nov-25 05:55 UTC.
Position N 59°16' E 018°54'.

Length 108 m; draft 7 m.

Type: Cargo ship. MMSI: 636092323.

Date/timePositionNaut miles runAvg speedWind from/ knotsBaromVisibWave heightAir tempDewpointWater temp
2017-Nov-24 12:41N 59°16' E 018°54'4 9.5
2017-Nov-24 12:17N 59°19' E 018°49'410.8
2017-Nov-24 11:58N 59°22' E 018°45'510.3
2017-Nov-24 11:30N 59°22' E 018°36'510.7
2017-Nov-24 11:00N 59°26' E 018°29'2 4.7
2017-Nov-24 10:29N 59°24' E 018°26'3 5.4
2017-Nov-24 10:01N 59°22' E 018°24'5 9.3
2017-Nov-24 09:30N 59°21' E 018°15'4 7.3
2017-Nov-24 09:00N 59°21' E 018°08'0 0.4
2017-Nov-24 08:28N 59°21' E 018°07'0 0.0
2017-Nov-24 07:58N 59°21' E 018°07'0 0.0
2017-Nov-24 07:28N 59°21' E 018°07'0 0.0
2017-Nov-24 06:58N 59°21' E 018°07'0 0.0
2017-Nov-24 06:28N 59°21' E 018°07'0 0.0
2017-Nov-24 05:58N 59°21' E 018°07'0 0.0
2017-Nov-24 05:28N 59°21' E 018°07'0 0.0
2017-Nov-24 04:58N 59°21' E 018°07'0 0.0
2017-Nov-24 04:28N 59°21' E 018°07'0 0.0
2017-Nov-24 03:55N 59°21' E 018°07'0 0.0
2017-Nov-24 03:28N 59°21' E 018°07'0 0.0
2017-Nov-24 02:58N 59°21' E 018°07'0 0.0
2017-Nov-24 02:28N 59°21' E 018°07'0 0.0
2017-Nov-24 01:58N 59°21' E 018°07'0 0.0
2017-Nov-24 01:25N 59°21' E 018°07'0 0.0
2017-Nov-24 00:58N 59°21' E 018°07'0 0.0
2017-Nov-24 00:28N 59°21' E 018°07'0 0.0
2017-Nov-23 23:58N 59°21' E 018°07'0 0.0
2017-Nov-23 23:25N 59°21' E 018°07'0 0.0
2017-Nov-23 22:58N 59°21' E 018°07'0 0.0
2017-Nov-23 22:28N 59°21' E 018°07'0 0.0
2017-Nov-23 21:55N 59°21' E 018°07'0 0.0
2017-Nov-23 21:25N 59°21' E 018°07'0 0.0
2017-Nov-23 20:55N 59°21' E 018°07'0 0.0
2017-Nov-23 20:28N 59°21' E 018°07'0 0.0
2017-Nov-23 19:58N 59°21' E 018°07'0 0.0
2017-Nov-23 19:19N 59°21' E 018°07'0 0.0
2017-Nov-23 18:55N 59°21' E 018°07'0 0.0
2017-Nov-23 18:25N 59°21' E 018°07'0 0.0
2017-Nov-23 17:37N 59°21' E 018°07'0 0.0
2017-Nov-23 17:19N 59°21' E 018°07'0 0.0
2017-Nov-23 16:43N 59°21' E 018°07'0 0.0
2017-Nov-23 16:25N 59°21' E 018°07'0 0.0
2017-Nov-23 15:55N 59°21' E 018°07'0 0.0
2017-Nov-23 15:28N 59°21' E 018°07'0 0.0
2017-Nov-23 14:58N 59°21' E 018°07'0 0.0
2017-Nov-23 14:25N 59°21' E 018°07'0 0.0
2017-Nov-23 13:58N 59°21' E 018°07'0 0.0
2017-Nov-23 13:28N 59°21' E 018°07'0 0.0
2017-Nov-23 12:58N 59°21' E 018°07'0 0.0
2017-Nov-23 12:28N 59°21' E 018°07'0 0.0
2017-Nov-23 11:58N 59°21' E 018°07'0 0.0
2017-Nov-23 11:28N 59°21' E 018°07'0 0.0
2017-Nov-23 10:58N 59°21' E 018°07'0 0.0
2017-Nov-23 10:25N 59°21' E 018°07'0 0.0
2017-Nov-23 09:58N 59°21' E 018°07'0 0.0
2017-Nov-23 09:28N 59°21' E 018°07'0 0.0
2017-Nov-23 08:58N 59°21' E 018°07'0 0.0
2017-Nov-23 08:25N 59°21' E 018°07'0 0.0
2017-Nov-23 07:58N 59°21' E 018°07'0 0.0
2017-Nov-23 07:28N 59°21' E 018°07'0 0.0
2017-Nov-23 06:55N 59°21' E 018°07'0 0.0
2017-Nov-23 06:28N 59°21' E 018°07'0 0.0
2017-Nov-23 05:58N 59°21' E 018°07'0 0.0
2017-Nov-23 05:28N 59°21' E 018°07'0 0.0
2017-Nov-23 04:58N 59°21' E 018°07'0 0.0
2017-Nov-23 04:28N 59°21' E 018°07'0 0.0
2017-Nov-23 03:58N 59°21' E 018°07'0 0.0
2017-Nov-23 03:28N 59°21' E 018°07'0 0.0
2017-Nov-23 02:58N 59°21' E 018°07'0 0.0
2017-Nov-23 02:28N 59°21' E 018°07'0 0.0
2017-Nov-23 01:58N 59°21' E 018°07'0 0.0
2017-Nov-23 01:28N 59°21' E 018°07'0 0.0
2017-Nov-23 00:58N 59°21' E 018°07'0 0.0
2017-Nov-23 00:28N 59°21' E 018°07'0 0.0
2017-Nov-22 23:58N 59°21' E 018°07'0 0.0
2017-Nov-22 23:28N 59°21' E 018°07'0 0.0
2017-Nov-22 22:58N 59°21' E 018°07'0 0.0
2017-Nov-22 22:28N 59°21' E 018°07'0 0.0
2017-Nov-22 21:58N 59°21' E 018°07'0 0.0
2017-Nov-22 21:28N 59°21' E 018°07'0 0.0
2017-Nov-22 20:55N 59°21' E 018°07'0 0.0
2017-Nov-22 20:25N 59°21' E 018°07'0 0.0
2017-Nov-22 19:58N 59°21' E 018°07'0 0.0
2017-Nov-22 19:25N 59°21' E 018°07'  
2017-Nov-20 00:30N 55°36' E 012°29'0 0.0
2017-Nov-20 00:00N 55°36' E 012°29'0 0.0
2017-Nov-19 23:30N 55°36' E 012°29'0 0.0
2017-Nov-19 23:00N 55°36' E 012°29'0 0.0
2017-Nov-19 22:30N 55°36' E 012°29'0 0.0
2017-Nov-19 22:00N 55°36' E 012°29'0 0.0
2017-Nov-19 21:30N 55°36' E 012°29'0 0.0
2017-Nov-19 21:00N 55°36' E 012°29'0 0.0
2017-Nov-19 20:30N 55°36' E 012°29'0 0.0
2017-Nov-19 20:00N 55°36' E 012°29'0 0.0
2017-Nov-19 19:30N 55°36' E 012°29'0 0.0
2017-Nov-19 19:00N 55°36' E 012°29'0 0.0
2017-Nov-19 18:30N 55°36' E 012°29'0 0.0
2017-Nov-19 18:00N 55°36' E 012°29'0 0.0
2017-Nov-19 17:30N 55°36' E 012°29'0 0.0
2017-Nov-19 17:00N 55°36' E 012°29'0 0.0
2017-Nov-19 16:30N 55°36' E 012°29'0 0.0
2017-Nov-19 16:00N 55°36' E 012°29'0 0.0
2017-Nov-19 15:30N 55°36' E 012°29'0 0.0
2017-Nov-19 15:00N 55°36' E 012°29'0 0.0
2017-Nov-19 14:30N 55°36' E 012°29'0 0.0
2017-Nov-19 14:00N 55°36' E 012°29'0 0.0
2017-Nov-19 13:30N 55°36' E 012°29'0 0.0
2017-Nov-19 13:00N 55°36' E 012°29'0 0.0
2017-Nov-19 12:30N 55°36' E 012°29'0 0.0
2017-Nov-19 12:00N 55°36' E 012°29'0 0.0
2017-Nov-19 11:30N 55°36' E 012°29'0 0.0
2017-Nov-19 11:00N 55°36' E 012°29'0 0.0
2017-Nov-19 10:30N 55°36' E 012°29'0 0.0
2017-Nov-19 10:00N 55°36' E 012°29'0 0.0
2017-Nov-19 09:30N 55°36' E 012°29'0 0.0
2017-Nov-19 09:00N 55°36' E 012°29'0 0.0
2017-Nov-19 08:30N 55°36' E 012°29'0 0.1
2017-Nov-19 08:00N 55°36' E 012°29'1 1.3
2017-Nov-19 07:30N 55°35' E 012°29'4 7.5
2017-Nov-19 07:00N 55°32' E 012°30'2 4.6
2017-Nov-19 06:30N 55°30' E 012°32'2 4.3
2017-Nov-19 06:00N 55°29' E 012°36'2 4.2
2017-Nov-19 05:30N 55°30' E 012°39'2 4.2
2017-Nov-19 05:00N 55°31' E 012°43'4 7.8
2017-Nov-19 04:30N 55°27' E 012°39'510.4
2017-Nov-19 04:00N 55°23' E 012°34'4 8.8
2017-Nov-19 03:30N 55°19' E 012°30'0 0.1
2017-Nov-19 01:30N 55°19' E 012°30'0 0.0
2017-Nov-18 20:36N 55°19' E 012°30'0 2.9
2017-Nov-18 20:30N 55°19' E 012°30'5 9.2
2017-Nov-18 20:00N 55°19' E 012°38'4 8.6
2017-Nov-18 19:30N 55°17' E 012°45'5 9.5
2017-Nov-18 19:00N 55°16' E 012°53'5 9.5
2017-Nov-18 18:30N 55°16' E 013°01'5 9.6
2017-Nov-18 17:57N 55°15' E 013°11'25 9.6
2017-Nov-18 15:21N 55°14' E 013°54'4 9.3
2017-Nov-18 14:54N 55°14' E 014°02'9 7.7
2017-Nov-18 13:42N 55°14' E 014°18'2 6.7
2017-Nov-18 13:27N 55°15' E 014°20'3 6.3
2017-Nov-18 13:00N 55°18' E 014°23'3 6.0
2017-Nov-18 12:26N 55°20' E 014°27'2 5.3
2017-Nov-18 12:00N 55°22' E 014°29'3 6.1
2017-Nov-18 11:27N 55°25' E 014°33'8 6.4
2017-Nov-18 10:07N 55°30' E 014°45'2 7.3
2017-Nov-18 09:52N 55°30' E 014°48'4 7.0
2017-Nov-18 09:22N 55°32' E 014°54'3 7.1
2017-Nov-18 08:58N 55°34' E 014°58'4 7.7
2017-Nov-18 08:27N 55°36' E 015°04'4 8.0
2017-Nov-18 08:00N 55°37' E 015°10'4 8.2
2017-Nov-18 07:30N 55°39' E 015°16'4 8.6
2017-Nov-18 07:00N 55°41' E 015°22'4 8.4
2017-Nov-18 06:30N 55°44' E 015°29'4 8.7
2017-Nov-18 06:00N 55°46' E 015°36'4 8.6
2017-Nov-18 05:30N 55°48' E 015°42'4 8.2
2017-Nov-18 05:00N 55°50' E 015°49'4 8.2
2017-Nov-18 04:30N 55°52' E 015°55'4 8.2
2017-Nov-18 04:00N 55°54' E 016°01'4 8.6
2017-Nov-18 03:30N 55°56' E 016°08'4 8.8
2017-Nov-18 03:00N 55°58' E 016°15'4 8.7
2017-Nov-18 02:30N 56°00' E 016°22'4 8.6
2017-Nov-18 02:00N 56°02' E 016°28'4 8.8
2017-Nov-18 01:30N 56°05' E 016°35'4 8.8
2017-Nov-18 01:00N 56°07' E 016°41'4 8.9
2017-Nov-18 00:30N 56°10' E 016°47'  
Track history (hours):
 
Tides and Currents Weather Stations Pressure Air Temp Water Temp Dewpoint Dewpoint Depression Visibility Wind Speed Wind Dir Waves Ship Positions

Gaellnoe

Last reported at 2017-Nov-24 12:41 UTC. Time now 2017-Nov-25 05:55 UTC.
Position N 59°16' E 018°54'.

Length 108 m; draft 7 m.

Type: Cargo ship. MMSI: 636092323.

Date/timePositionNaut miles runAvg speedWind from/ knotsBaromVisibWave heightAir tempDewpointWater temp
2017-Nov-24 12:41N 59°16' E 018°54'4 9.5
2017-Nov-24 12:17N 59°19' E 018°49'410.8
2017-Nov-24 11:58N 59°22' E 018°45'510.3
2017-Nov-24 11:30N 59°22' E 018°36'510.7
2017-Nov-24 11:00N 59°26' E 018°29'2 4.7
2017-Nov-24 10:29N 59°24' E 018°26'3 5.4
2017-Nov-24 10:01N 59°22' E 018°24'5 9.3
2017-Nov-24 09:30N 59°21' E 018°15'4 7.3
2017-Nov-24 09:00N 59°21' E 018°08'0 0.4
2017-Nov-24 08:28N 59°21' E 018°07'0 0.0
2017-Nov-24 07:58N 59°21' E 018°07'0 0.0
2017-Nov-24 07:28N 59°21' E 018°07'0 0.0
2017-Nov-24 06:58N 59°21' E 018°07'0 0.0
2017-Nov-24 06:28N 59°21' E 018°07'0 0.0
2017-Nov-24 05:58N 59°21' E 018°07'0 0.0
2017-Nov-24 05:28N 59°21' E 018°07'0 0.0
2017-Nov-24 04:58N 59°21' E 018°07'0 0.0
2017-Nov-24 04:28N 59°21' E 018°07'0 0.0
2017-Nov-24 03:55N 59°21' E 018°07'0 0.0
2017-Nov-24 03:28N 59°21' E 018°07'0 0.0
2017-Nov-24 02:58N 59°21' E 018°07'0 0.0
2017-Nov-24 02:28N 59°21' E 018°07'0 0.0
2017-Nov-24 01:58N 59°21' E 018°07'0 0.0
2017-Nov-24 01:25N 59°21' E 018°07'0 0.0
2017-Nov-24 00:58N 59°21' E 018°07'0 0.0
2017-Nov-24 00:28N 59°21' E 018°07'0 0.0
2017-Nov-23 23:58N 59°21' E 018°07'0 0.0
2017-Nov-23 23:25N 59°21' E 018°07'0 0.0
2017-Nov-23 22:58N 59°21' E 018°07'0 0.0
2017-Nov-23 22:28N 59°21' E 018°07'0 0.0
2017-Nov-23 21:55N 59°21' E 018°07'0 0.0
2017-Nov-23 21:25N 59°21' E 018°07'0 0.0
2017-Nov-23 20:55N 59°21' E 018°07'0 0.0
2017-Nov-23 20:28N 59°21' E 018°07'0 0.0
2017-Nov-23 19:58N 59°21' E 018°07'0 0.0
2017-Nov-23 19:19N 59°21' E 018°07'0 0.0
2017-Nov-23 18:55N 59°21' E 018°07'0 0.0
2017-Nov-23 18:25N 59°21' E 018°07'0 0.0
2017-Nov-23 17:37N 59°21' E 018°07'0 0.0
2017-Nov-23 17:19N 59°21' E 018°07'0 0.0
2017-Nov-23 16:43N 59°21' E 018°07'0 0.0
2017-Nov-23 16:25N 59°21' E 018°07'0 0.0
2017-Nov-23 15:55N 59°21' E 018°07'0 0.0
2017-Nov-23 15:28N 59°21' E 018°07'0 0.0
2017-Nov-23 14:58N 59°21' E 018°07'0 0.0
2017-Nov-23 14:25N 59°21' E 018°07'0 0.0
2017-Nov-23 13:58N 59°21' E 018°07'0 0.0
2017-Nov-23 13:28N 59°21' E 018°07'0 0.0
2017-Nov-23 12:58N 59°21' E 018°07'0 0.0
2017-Nov-23 12:28N 59°21' E 018°07'0 0.0
2017-Nov-23 11:58N 59°21' E 018°07'0 0.0
2017-Nov-23 11:28N 59°21' E 018°07'0 0.0
2017-Nov-23 10:58N 59°21' E 018°07'0 0.0
2017-Nov-23 10:25N 59°21' E 018°07'0 0.0
2017-Nov-23 09:58N 59°21' E 018°07'0 0.0
2017-Nov-23 09:28N 59°21' E 018°07'0 0.0
2017-Nov-23 08:58N 59°21' E 018°07'0 0.0
2017-Nov-23 08:25N 59°21' E 018°07'0 0.0
2017-Nov-23 07:58N 59°21' E 018°07'0 0.0
2017-Nov-23 07:28N 59°21' E 018°07'0 0.0
2017-Nov-23 06:55N 59°21' E 018°07'0 0.0
2017-Nov-23 06:28N 59°21' E 018°07'0 0.0
2017-Nov-23 05:58N 59°21' E 018°07'0 0.0
2017-Nov-23 05:28N 59°21' E 018°07'0 0.0
2017-Nov-23 04:58N 59°21' E 018°07'0 0.0
2017-Nov-23 04:28N 59°21' E 018°07'0 0.0
2017-Nov-23 03:58N 59°21' E 018°07'0 0.0
2017-Nov-23 03:28N 59°21' E 018°07'0 0.0
2017-Nov-23 02:58N 59°21' E 018°07'0 0.0
2017-Nov-23 02:28N 59°21' E 018°07'0 0.0
2017-Nov-23 01:58N 59°21' E 018°07'0 0.0
2017-Nov-23 01:28N 59°21' E 018°07'0 0.0
2017-Nov-23 00:58N 59°21' E 018°07'0 0.0
2017-Nov-23 00:28N 59°21' E 018°07'0 0.0
2017-Nov-22 23:58N 59°21' E 018°07'0 0.0
2017-Nov-22 23:28N 59°21' E 018°07'0 0.0
2017-Nov-22 22:58N 59°21' E 018°07'0 0.0
2017-Nov-22 22:28N 59°21' E 018°07'0 0.0
2017-Nov-22 21:58N 59°21' E 018°07'0 0.0
2017-Nov-22 21:28N 59°21' E 018°07'0 0.0
2017-Nov-22 20:55N 59°21' E 018°07'0 0.0
2017-Nov-22 20:25N 59°21' E 018°07'0 0.0
2017-Nov-22 19:58N 59°21' E 018°07'0 0.0
2017-Nov-22 19:25N 59°21' E 018°07'  
2017-Nov-20 00:30N 55°36' E 012°29'0 0.0
2017-Nov-20 00:00N 55°36' E 012°29'0 0.0
2017-Nov-19 23:30N 55°36' E 012°29'0 0.0
2017-Nov-19 23:00N 55°36' E 012°29'0 0.0
2017-Nov-19 22:30N 55°36' E 012°29'0 0.0
2017-Nov-19 22:00N 55°36' E 012°29'0 0.0
2017-Nov-19 21:30N 55°36' E 012°29'0 0.0
2017-Nov-19 21:00N 55°36' E 012°29'0 0.0
2017-Nov-19 20:30N 55°36' E 012°29'0 0.0
2017-Nov-19 20:00N 55°36' E 012°29'0 0.0
2017-Nov-19 19:30N 55°36' E 012°29'0 0.0
2017-Nov-19 19:00N 55°36' E 012°29'0 0.0
2017-Nov-19 18:30N 55°36' E 012°29'0 0.0
2017-Nov-19 18:00N 55°36' E 012°29'0 0.0
2017-Nov-19 17:30N 55°36' E 012°29'0 0.0
2017-Nov-19 17:00N 55°36' E 012°29'0 0.0
2017-Nov-19 16:30N 55°36' E 012°29'0 0.0
2017-Nov-19 16:00N 55°36' E 012°29'0 0.0
2017-Nov-19 15:30N 55°36' E 012°29'0 0.0
2017-Nov-19 15:00N 55°36' E 012°29'0 0.0
2017-Nov-19 14:30N 55°36' E 012°29'0 0.0
2017-Nov-19 14:00N 55°36' E 012°29'0 0.0
2017-Nov-19 13:30N 55°36' E 012°29'0 0.0
2017-Nov-19 13:00N 55°36' E 012°29'0 0.0
2017-Nov-19 12:30N 55°36' E 012°29'0 0.0
2017-Nov-19 12:00N 55°36' E 012°29'0 0.0
2017-Nov-19 11:30N 55°36' E 012°29'0 0.0
2017-Nov-19 11:00N 55°36' E 012°29'0 0.0
2017-Nov-19 10:30N 55°36' E 012°29'0 0.0
2017-Nov-19 10:00N 55°36' E 012°29'0 0.0
2017-Nov-19 09:30N 55°36' E 012°29'0 0.0
2017-Nov-19 09:00N 55°36' E 012°29'0 0.0
2017-Nov-19 08:30N 55°36' E 012°29'0 0.1
2017-Nov-19 08:00N 55°36' E 012°29'1 1.3
2017-Nov-19 07:30N 55°35' E 012°29'4 7.5
2017-Nov-19 07:00N 55°32' E 012°30'2 4.6
2017-Nov-19 06:30N 55°30' E 012°32'2 4.3
2017-Nov-19 06:00N 55°29' E 012°36'2 4.2
2017-Nov-19 05:30N 55°30' E 012°39'2 4.2
2017-Nov-19 05:00N 55°31' E 012°43'4 7.8
2017-Nov-19 04:30N 55°27' E 012°39'510.4
2017-Nov-19 04:00N 55°23' E 012°34'4 8.8
2017-Nov-19 03:30N 55°19' E 012°30'0 0.1
2017-Nov-19 01:30N 55°19' E 012°30'0 0.0
2017-Nov-18 20:36N 55°19' E 012°30'0 2.9
2017-Nov-18 20:30N 55°19' E 012°30'5 9.2
2017-Nov-18 20:00N 55°19' E 012°38'4 8.6
2017-Nov-18 19:30N 55°17' E 012°45'5 9.5
2017-Nov-18 19:00N 55°16' E 012°53'5 9.5
2017-Nov-18 18:30N 55°16' E 013°01'5 9.6
2017-Nov-18 17:57N 55°15' E 013°11'25 9.6
2017-Nov-18 15:21N 55°14' E 013°54'4 9.3
2017-Nov-18 14:54N 55°14' E 014°02'9 7.7
2017-Nov-18 13:42N 55°14' E 014°18'2 6.7
2017-Nov-18 13:27N 55°15' E 014°20'3 6.3
2017-Nov-18 13:00N 55°18' E 014°23'3 6.0
2017-Nov-18 12:26N 55°20' E 014°27'2 5.3
2017-Nov-18 12:00N 55°22' E 014°29'3 6.1
2017-Nov-18 11:27N 55°25' E 014°33'8 6.4
2017-Nov-18 10:07N 55°30' E 014°45'2 7.3
2017-Nov-18 09:52N 55°30' E 014°48'4 7.0
2017-Nov-18 09:22N 55°32' E 014°54'3 7.1
2017-Nov-18 08:58N 55°34' E 014°58'4 7.7
2017-Nov-18 08:27N 55°36' E 015°04'4 8.0
2017-Nov-18 08:00N 55°37' E 015°10'4 8.2
2017-Nov-18 07:30N 55°39' E 015°16'4 8.6
2017-Nov-18 07:00N 55°41' E 015°22'4 8.4
2017-Nov-18 06:30N 55°44' E 015°29'4 8.7
2017-Nov-18 06:00N 55°46' E 015°36'4 8.6
2017-Nov-18 05:30N 55°48' E 015°42'4 8.2
2017-Nov-18 05:00N 55°50' E 015°49'4 8.2
2017-Nov-18 04:30N 55°52' E 015°55'4 8.2
2017-Nov-18 04:00N 55°54' E 016°01'4 8.6
2017-Nov-18 03:30N 55°56' E 016°08'4 8.8
2017-Nov-18 03:00N 55°58' E 016°15'4 8.7
2017-Nov-18 02:30N 56°00' E 016°22'4 8.6
2017-Nov-18 02:00N 56°02' E 016°28'4 8.8
2017-Nov-18 01:30N 56°05' E 016°35'4 8.8
2017-Nov-18 01:00N 56°07' E 016°41'4 8.9
2017-Nov-18 00:30N 56°10' E 016°47'  

Dump ship's entire track history